createdAt,value
2017-12-19T00:02:04.398Z,10.57
2017-12-19T00:07:03.982Z,11.13
2017-12-19T00:09:31.721Z,12.83
2017-12-19T00:11:59.550Z,13.17
2017-12-19T00:14:27.243Z,9.80
2017-12-19T00:16:55.204Z,11.70
2017-12-19T00:19:22.980Z,11.43
2017-12-19T00:21:50.798Z,12.57
2017-12-19T00:24:18.623Z,9.63
2017-12-19T00:26:46.503Z,10.10
2017-12-19T00:29:14.321Z,9.97
2017-12-19T00:31:42.078Z,9.33
2017-12-19T00:34:09.844Z,10.27
2017-12-19T00:36:37.663Z,9.57
2017-12-19T00:39:05.483Z,13.80
2017-12-19T00:41:33.260Z,11.03
2017-12-19T00:44:01.042Z,9.63
2017-12-19T00:46:28.818Z,10.97
2017-12-19T00:48:56.600Z,13.63
2017-12-19T00:51:24.587Z,11.33
2017-12-19T00:53:52.568Z,12.23
2017-12-19T00:56:20.533Z,15.53
2017-12-19T00:58:48.278Z,11.97
2017-12-19T01:01:16.081Z,12.90
2017-12-19T01:03:43.862Z,13.13
2017-12-19T01:06:11.679Z,10.00
2017-12-19T01:08:39.438Z,13.90
2017-12-19T01:11:07.261Z,11.90
2017-12-19T01:13:35.021Z,12.20
2017-12-19T01:16:02.761Z,11.47
2017-12-19T01:18:30.559Z,11.83
2017-12-19T01:20:58.301Z,11.87
2017-12-19T01:23:26.025Z,13.37
2017-12-19T01:25:53.765Z,13.43
2017-12-19T01:28:21.482Z,11.13
2017-12-19T01:30:49.222Z,10.53
2017-12-19T01:33:16.962Z,13.43
2017-12-19T01:35:44.699Z,16.30
2017-12-19T01:38:12.461Z,15.93
2017-12-19T01:40:40.220Z,11.07
2017-12-19T01:43:07.959Z,12.97
2017-12-19T01:45:35.701Z,10.63
2017-12-19T01:48:03.498Z,10.03
2017-12-19T01:50:31.239Z,9.67
2017-12-19T01:52:58.942Z,10.47
2017-12-19T01:55:26.698Z,10.60
2017-12-19T01:57:54.438Z,10.50
2017-12-19T02:00:22.148Z,11.07
2017-12-19T02:02:49.860Z,9.03
2017-12-19T02:05:17.599Z,11.20
2017-12-19T02:07:45.337Z,9.73
2017-12-19T02:10:13.042Z,9.60
2017-12-19T02:12:40.761Z,11.83
2017-12-19T02:15:09.326Z,11.07
2017-12-19T02:17:37.121Z,10.50
2017-12-19T02:20:04.861Z,11.60
2017-12-19T02:22:32.718Z,8.50
2017-12-19T02:25:00.498Z,18.20
2017-12-19T02:27:28.352Z,19.23
2017-12-19T02:29:56.181Z,11.83
2017-12-19T02:32:24.739Z,19.57
2017-12-19T02:34:52.537Z,11.40
2017-12-19T02:37:20.320Z,8.83
2017-12-19T02:39:48.101Z,10.27
2017-12-19T02:42:15.902Z,9.87
2017-12-19T02:44:43.718Z,8.43
2017-12-19T02:47:11.522Z,7.60
2017-12-19T02:52:11.163Z,8.17
2017-12-19T02:54:38.959Z,9.37
2017-12-19T02:57:06.761Z,9.63
2017-12-19T02:59:34.578Z,10.73
2017-12-19T03:02:02.421Z,9.23
2017-12-19T03:04:30.262Z,7.27
2017-12-19T03:06:58.160Z,9.03
2017-12-19T03:09:25.922Z,7.80
2017-12-19T03:11:53.720Z,9.30
2017-12-19T03:14:21.523Z,8.63
2017-12-19T03:16:49.301Z,9.23
2017-12-19T03:19:17.142Z,8.07
2017-12-19T03:21:44.918Z,7.57
2017-12-19T03:24:12.678Z,9.57
2017-12-19T03:26:40.459Z,7.63
2017-12-19T03:29:08.258Z,8.70
2017-12-19T03:31:36.081Z,9.63
2017-12-19T03:34:03.899Z,7.80
2017-12-19T03:36:31.759Z,7.70
2017-12-19T03:38:59.539Z,9.33
2017-12-19T03:41:27.303Z,9.83
2017-12-19T03:43:55.139Z,9.73
2017-12-19T03:46:22.960Z,8.03
2017-12-19T03:48:50.727Z,11.30
2017-12-19T03:51:18.578Z,7.53
2017-12-19T03:53:46.359Z,10.00
2017-12-19T03:56:14.158Z,9.37
2017-12-19T03:58:41.970Z,8.13
2017-12-19T04:01:09.782Z,10.67
2017-12-19T04:03:37.600Z,10.00
2017-12-19T04:06:05.440Z,9.77
2017-12-19T04:08:33.237Z,10.30
2017-12-19T04:11:01.022Z,10.27
2017-12-19T04:13:28.822Z,14.63
2017-12-19T04:15:56.558Z,15.63
2017-12-19T04:18:24.362Z,15.30
2017-12-19T04:20:52.160Z,13.73
2017-12-19T04:23:19.980Z,16.10
2017-12-19T04:25:47.862Z,16.03
2017-12-19T04:28:15.682Z,15.93
2017-12-19T04:30:44.344Z,13.37
2017-12-19T04:33:12.160Z,12.57
2017-12-19T04:35:39.958Z,12.13
2017-12-19T04:38:07.759Z,14.50
2017-12-19T04:40:35.498Z,11.23
2017-12-19T04:43:03.367Z,9.20
2017-12-19T04:45:31.222Z,11.63
2017-12-19T04:47:59.118Z,9.07
2017-12-19T04:50:26.898Z,9.40
2017-12-19T04:52:54.718Z,9.33
2017-12-19T04:55:22.517Z,8.53
2017-12-19T04:57:50.421Z,9.13
2017-12-19T05:00:18.110Z,8.00
2017-12-19T05:02:45.861Z,12.37
2017-12-19T05:05:13.668Z,10.33
2017-12-19T05:07:41.521Z,9.77
2017-12-19T05:10:09.383Z,14.93
2017-12-19T05:12:37.178Z,9.67
2017-12-19T05:15:05.020Z,12.23
2017-12-19T05:17:32.862Z,12.00
2017-12-19T05:20:00.638Z,10.93
2017-12-19T05:22:28.479Z,11.73
2017-12-19T05:24:57.138Z,11.00
2017-12-19T05:29:56.878Z,11.30
2017-12-19T05:32:24.622Z,11.77
2017-12-19T05:34:52.443Z,16.70
2017-12-19T05:37:21.002Z,15.00
2017-12-19T05:39:49.600Z,15.83
2017-12-19T05:42:17.445Z,13.40
2017-12-19T05:44:45.225Z,18.77
2017-12-19T05:47:13.138Z,13.53
2017-12-19T05:49:40.902Z,12.20
2017-12-19T05:52:08.742Z,14.80
2017-12-19T05:54:36.545Z,11.77
2017-12-19T05:57:04.384Z,11.67
2017-12-19T05:59:32.144Z,8.47
2017-12-19T06:01:59.921Z,9.53
2017-12-19T06:04:27.702Z,10.53
2017-12-19T06:06:55.562Z,11.23
2017-12-19T06:09:24.140Z,12.03
2017-12-19T06:11:51.880Z,9.77
2017-12-19T06:14:19.662Z,10.60
2017-12-19T06:16:47.478Z,11.43
2017-12-19T06:19:15.460Z,9.40
2017-12-19T06:21:43.421Z,14.20
2017-12-19T06:24:11.338Z,11.00
2017-12-19T06:26:39.239Z,11.60
2017-12-19T06:29:07.081Z,9.63
2017-12-19T06:31:34.922Z,11.63
2017-12-19T06:34:02.781Z,14.93
2017-12-19T06:36:31.472Z,10.83
2017-12-19T06:38:59.321Z,11.03
2017-12-19T06:41:27.222Z,17.90
2017-12-19T06:43:55.863Z,12.47
2017-12-19T06:46:23.781Z,17.67
2017-12-19T06:48:51.661Z,18.37
2017-12-19T06:51:19.482Z,19.37
2017-12-19T06:53:47.362Z,16.07
2017-12-19T06:56:15.259Z,18.30
2017-12-19T06:58:43.120Z,17.47
2017-12-19T07:01:10.890Z,18.10
2017-12-19T07:03:38.730Z,18.90
2017-12-19T07:06:06.541Z,15.77
2017-12-19T07:08:35.205Z,19.13
2017-12-19T07:11:03.082Z,13.67
2017-12-19T07:13:31.831Z,17.10
2017-12-19T07:16:01.391Z,19.67
2017-12-19T07:18:29.280Z,19.83
2017-12-19T07:20:57.023Z,19.40
2017-12-19T07:23:24.764Z,15.83
2017-12-19T07:25:52.579Z,17.60
2017-12-19T07:28:28.509Z,19.93
2017-12-19T07:30:56.603Z,16.63
2017-12-19T07:33:26.241Z,16.47
2017-12-19T07:35:54.114Z,28.63
2017-12-19T07:38:21.983Z,20.80
2017-12-19T07:40:49.790Z,16.07
2017-12-19T07:43:19.628Z,23.17
2017-12-19T07:45:49.270Z,21.07
2017-12-19T07:48:18.350Z,17.87
2017-12-19T07:50:46.219Z,16.13
2017-12-19T07:53:14.010Z,16.80
2017-12-19T07:55:41.724Z,17.70
2017-12-19T07:58:09.525Z,18.77
2017-12-19T08:00:37.344Z,19.53
2017-12-19T08:03:07.055Z,18.47
2017-12-19T08:05:35.015Z,18.93
2017-12-19T08:08:02.865Z,20.17
2017-12-19T08:10:30.597Z,20.27
2017-12-19T08:12:58.410Z,19.50
2017-12-19T08:15:26.388Z,24.50
2017-12-19T08:17:54.166Z,20.20
2017-12-19T08:20:22.140Z,19.67
2017-12-19T08:22:49.958Z,22.00
2017-12-19T08:25:17.762Z,17.77
2017-12-19T08:27:45.541Z,17.93
2017-12-19T08:30:13.381Z,15.40
2017-12-19T08:32:41.116Z,18.63
2017-12-19T08:35:08.900Z,17.23
2017-12-19T08:37:36.703Z,15.90
2017-12-19T08:40:04.441Z,15.40
2017-12-19T08:42:32.962Z,17.90
2017-12-19T08:45:00.739Z,17.30
2017-12-19T08:47:28.520Z,14.73
2017-12-19T08:49:56.278Z,13.47
2017-12-19T08:52:24.180Z,14.93
2017-12-19T08:54:52.741Z,23.87
2017-12-19T08:57:21.238Z,21.93
2017-12-19T08:59:49.113Z,19.63
2017-12-19T09:02:16.907Z,27.97
2017-12-19T09:04:44.633Z,21.53
2017-12-19T09:07:12.400Z,23.87
2017-12-19T09:09:40.163Z,19.60
2017-12-19T09:12:07.938Z,27.50
2017-12-19T09:14:35.780Z,22.07
2017-12-19T09:17:04.299Z,19.70
2017-12-19T09:19:32.102Z,21.23
2017-12-19T09:21:59.970Z,20.40
2017-12-19T09:24:27.780Z,19.43
2017-12-19T09:26:55.561Z,18.33
2017-12-19T09:29:23.523Z,22.00
2017-12-19T09:31:51.419Z,28.50
2017-12-19T09:34:19.298Z,20.17
2017-12-19T09:36:47.259Z,17.07
2017-12-19T09:39:15.051Z,17.33
2017-12-19T09:41:42.741Z,16.60
2017-12-19T09:44:10.491Z,18.77
2017-12-19T09:46:38.253Z,21.07
2017-12-19T09:49:05.988Z,18.23
2017-12-19T09:51:33.840Z,16.47
2017-12-19T09:54:01.702Z,20.83
2017-12-19T09:56:29.439Z,14.60
2017-12-19T09:59:03.102Z,16.00
2017-12-19T10:01:30.926Z,16.17
2017-12-19T10:03:59.445Z,17.60
2017-12-19T10:06:27.201Z,23.13
2017-12-19T10:08:54.969Z,26.50
2017-12-19T10:11:22.746Z,19.30
2017-12-19T10:13:50.505Z,21.93
2017-12-19T10:16:18.243Z,18.67
2017-12-19T10:18:49.774Z,17.93
2017-12-19T10:21:17.685Z,19.40
2017-12-19T10:23:45.640Z,19.97
2017-12-19T10:26:13.567Z,19.40
2017-12-19T10:28:41.484Z,18.33
2017-12-19T10:31:09.324Z,17.17
2017-12-19T10:33:37.882Z,16.43
2017-12-19T10:36:05.684Z,18.37
2017-12-19T10:38:33.539Z,18.43
2017-12-19T10:41:01.360Z,18.40
2017-12-19T10:43:29.296Z,13.87
2017-12-19T10:45:57.108Z,15.63
2017-12-19T10:48:24.888Z,17.40
2017-12-19T10:50:52.709Z,15.23
2017-12-19T10:53:21.261Z,19.67
2017-12-19T10:55:49.038Z,14.47
2017-12-19T10:58:16.883Z,13.10
2017-12-19T11:00:44.699Z,18.13
2017-12-19T11:03:12.489Z,19.23
2017-12-19T11:05:40.306Z,18.73
2017-12-19T11:08:08.121Z,16.13
2017-12-19T11:10:35.878Z,14.13
2017-12-19T11:13:03.707Z,12.17
2017-12-19T11:15:31.451Z,15.27
2017-12-19T11:17:59.231Z,13.37
2017-12-19T11:20:27.117Z,12.03
2017-12-19T11:22:55.258Z,14.87
2017-12-19T11:25:23.089Z,19.17
2017-12-19T11:27:50.962Z,15.03
2017-12-19T11:30:19.548Z,13.70
2017-12-19T11:32:47.502Z,15.70
2017-12-19T11:35:15.368Z,14.60
2017-12-19T11:37:43.284Z,14.87
2017-12-19T11:40:11.163Z,15.23
2017-12-19T11:42:39.041Z,9.57
2017-12-19T11:45:10.872Z,10.43
2017-12-19T11:47:39.244Z,11.17
2017-12-19T11:50:07.050Z,12.27
2017-12-19T11:52:34.911Z,11.30
2017-12-19T11:55:02.681Z,15.57
2017-12-19T11:57:30.504Z,12.87
2017-12-19T11:59:58.271Z,9.73
2017-12-19T12:02:26.121Z,13.37
2017-12-19T12:04:55.086Z,8.97
2017-12-19T12:07:23.012Z,10.37
2017-12-19T12:09:50.868Z,9.33
2017-12-19T12:12:18.665Z,12.17
2017-12-19T12:14:46.487Z,10.50
2017-12-19T12:17:14.316Z,8.10
2017-12-19T12:19:42.070Z,8.60
2017-12-19T12:22:09.886Z,10.63
2017-12-19T12:24:37.738Z,9.90
2017-12-19T12:27:05.530Z,10.30
2017-12-19T12:29:33.265Z,8.40
2017-12-19T12:32:01.122Z,6.90
2017-12-19T12:34:28.920Z,6.73
2017-12-19T12:39:28.605Z,11.73
2017-12-19T12:41:56.342Z,6.13
2017-12-19T12:44:24.182Z,8.60
2017-12-19T12:46:51.975Z,9.53
2017-12-19T12:49:19.806Z,6.53
2017-12-19T12:51:47.600Z,7.47
2017-12-19T12:54:15.531Z,9.10
2017-12-19T12:56:43.319Z,10.07
2017-12-19T12:59:11.096Z,6.27
2017-12-19T13:01:39.029Z,6.33
2017-12-19T13:04:07.537Z,7.77
2017-12-19T13:06:37.097Z,5.73
2017-12-19T13:09:04.967Z,6.43
2017-12-19T13:11:32.702Z,8.20
2017-12-19T13:14:00.462Z,7.43
2017-12-19T13:16:28.284Z,6.67
2017-12-19T13:18:56.089Z,12.60
2017-12-19T13:21:23.916Z,8.50
2017-12-19T13:23:51.790Z,10.90
2017-12-19T13:26:19.602Z,12.47
2017-12-19T13:28:47.365Z,7.30
2017-12-19T13:31:15.164Z,6.50
2017-12-19T13:33:42.913Z,5.67
2017-12-19T13:36:11.059Z,4.93
2017-12-19T13:38:38.846Z,11.17
2017-12-19T13:41:06.565Z,5.70
2017-12-19T13:43:34.357Z,5.77
2017-12-19T13:46:02.156Z,5.40
2017-12-19T13:48:30.202Z,4.13
2017-12-19T13:50:57.962Z,3.97
2017-12-19T13:53:26.528Z,6.27
2017-12-19T13:55:54.327Z,5.47
2017-12-19T13:58:22.164Z,6.43
2017-12-19T14:00:50.045Z,17.37
2017-12-19T14:03:17.805Z,16.57
2017-12-19T14:05:46.000Z,9.47
2017-12-19T14:08:13.738Z,7.30
2017-12-19T14:10:41.740Z,7.83
2017-12-19T14:13:11.381Z,8.27
2017-12-19T14:15:39.487Z,7.83
2017-12-19T14:18:07.182Z,6.73
2017-12-19T14:20:34.858Z,7.37
2017-12-19T14:23:03.531Z,6.63
2017-12-19T14:25:31.329Z,8.63
2017-12-19T14:27:59.161Z,7.40
2017-12-19T14:30:26.965Z,5.80
2017-12-19T14:32:54.722Z,6.97
2017-12-19T14:35:22.478Z,8.73
2017-12-19T14:37:50.256Z,7.80
2017-12-19T14:40:18.038Z,7.43
2017-12-19T14:42:46.538Z,8.10
2017-12-19T14:45:15.293Z,6.47
2017-12-19T14:47:43.047Z,8.40
2017-12-19T14:50:10.862Z,9.87
2017-12-19T14:52:39.583Z,17.30
2017-12-19T14:55:07.343Z,17.60
2017-12-19T14:57:35.127Z,16.80
2017-12-19T15:00:02.925Z,15.37
2017-12-19T15:02:30.760Z,20.37
2017-12-19T15:04:58.602Z,15.23
2017-12-19T15:07:26.662Z,17.67
2017-12-19T15:09:54.604Z,30.57
2017-12-19T15:12:22.542Z,34.80
2017-12-19T15:14:51.102Z,31.63
2017-12-19T15:17:19.103Z,28.17
2017-12-19T15:19:47.602Z,27.73
2017-12-19T15:22:15.448Z,26.03
2017-12-19T15:24:44.188Z,33.93
2017-12-19T15:27:12.143Z,26.70
2017-12-19T15:29:40.021Z,23.50
2017-12-19T15:32:08.383Z,19.57
2017-12-19T15:34:37.063Z,12.23
2017-12-19T15:37:04.863Z,13.67
2017-12-19T15:39:32.824Z,11.40
2017-12-19T15:42:00.701Z,11.07
2017-12-19T15:44:28.603Z,12.40
2017-12-19T15:46:56.481Z,9.63
2017-12-19T15:49:24.429Z,9.27
2017-12-19T15:51:52.985Z,9.63
2017-12-19T15:54:20.782Z,7.97
2017-12-19T15:56:48.706Z,8.53
2017-12-19T15:59:16.825Z,8.07
2017-12-19T16:01:44.789Z,10.63
2017-12-19T16:04:12.624Z,9.50
2017-12-19T16:06:40.585Z,7.97
2017-12-19T16:09:08.475Z,8.77
2017-12-19T16:11:36.304Z,7.53
2017-12-19T16:14:04.207Z,8.57
2017-12-19T16:16:32.002Z,8.93
2017-12-19T16:18:59.962Z,9.67
2017-12-19T16:21:27.903Z,9.10
2017-12-19T16:23:56.398Z,10.27
2017-12-19T16:26:24.168Z,11.27
2017-12-19T16:28:52.227Z,30.40
2017-12-19T16:31:20.068Z,16.20
2017-12-19T16:33:48.127Z,11.53
2017-12-19T16:36:15.960Z,14.23
2017-12-19T16:38:43.761Z,10.90
2017-12-19T16:41:12.064Z,9.47
2017-12-19T16:43:40.885Z,15.77
2017-12-19T16:46:08.770Z,9.03
2017-12-19T16:48:36.600Z,7.13
2017-12-19T16:51:04.467Z,9.33
2017-12-19T16:53:32.547Z,10.87
2017-12-19T16:56:00.426Z,9.83
2017-12-19T16:58:28.485Z,11.67
2017-12-19T17:00:56.572Z,11.67
2017-12-19T17:03:24.345Z,10.57
2017-12-19T17:05:52.261Z,9.60
2017-12-19T17:08:20.220Z,11.77
2017-12-19T17:10:48.851Z,12.63
2017-12-19T17:13:16.864Z,16.37
2017-12-19T17:15:44.740Z,10.27
2017-12-19T17:18:12.686Z,11.27
2017-12-19T17:20:41.119Z,8.87
2017-12-19T17:23:08.966Z,14.43
2017-12-19T17:25:36.811Z,14.53
2017-12-19T17:28:06.149Z,34.93
2017-12-19T17:30:34.092Z,17.03
2017-12-19T17:33:01.943Z,26.83
2017-12-19T17:35:29.948Z,17.50
2017-12-19T17:37:57.968Z,18.13
2017-12-19T17:40:25.995Z,17.13
2017-12-19T17:42:53.918Z,19.73
2017-12-19T17:45:21.758Z,14.17
2017-12-19T17:47:49.694Z,14.07
2017-12-19T17:50:17.641Z,12.40
2017-12-19T17:52:45.575Z,11.37
2017-12-19T17:55:13.367Z,12.10
2017-12-19T17:57:41.206Z,12.80
2017-12-19T18:00:09.683Z,13.00
2017-12-19T18:02:38.146Z,14.07
2017-12-19T18:05:05.912Z,14.77
2017-12-19T18:07:33.792Z,14.10
2017-12-19T18:10:01.448Z,14.17
2017-12-19T18:12:29.342Z,15.20
2017-12-19T18:14:58.110Z,12.13
2017-12-19T18:17:25.926Z,14.20
2017-12-19T18:19:53.769Z,18.33
2017-12-19T18:22:21.686Z,15.70
2017-12-19T18:24:49.984Z,13.80
2017-12-19T18:27:18.588Z,15.40
2017-12-19T18:29:46.424Z,12.50
2017-12-19T18:32:14.699Z,15.17
2017-12-19T18:34:42.662Z,12.17
2017-12-19T18:37:11.639Z,16.63
2017-12-19T18:39:39.919Z,16.70
2017-12-19T18:42:08.043Z,15.30
2017-12-19T18:44:37.460Z,12.63
2017-12-19T18:47:05.506Z,14.17
2017-12-19T18:49:34.489Z,14.80
2017-12-19T18:52:03.333Z,13.97
2017-12-19T18:54:31.669Z,14.13
2017-12-19T18:57:13.088Z,14.20
2017-12-19T18:59:43.034Z,17.00
2017-12-19T19:02:10.883Z,18.60
2017-12-19T19:04:38.601Z,14.87
2017-12-19T19:07:06.641Z,12.43
2017-12-19T19:09:35.450Z,14.37
2017-12-19T19:12:07.351Z,13.60
2017-12-19T19:14:35.422Z,14.23
2017-12-19T19:17:03.243Z,14.20
2017-12-19T19:19:30.931Z,12.40
2017-12-19T19:21:58.760Z,14.17
2017-12-19T19:24:26.541Z,14.97
2017-12-19T19:26:55.181Z,18.33
2017-12-19T19:29:23.095Z,14.80
2017-12-19T19:31:50.924Z,17.37
2017-12-19T19:34:18.741Z,22.37
2017-12-19T19:36:46.562Z,18.63
2017-12-19T19:39:14.382Z,24.23
2017-12-19T19:41:42.188Z,15.83
2017-12-19T19:44:10.003Z,22.90
2017-12-19T19:46:37.782Z,19.80
2017-12-19T19:49:06.194Z,19.10
2017-12-19T19:51:34.046Z,30.43
2017-12-19T19:54:02.789Z,36.13
2017-12-19T19:56:31.303Z,30.90
2017-12-19T19:58:59.906Z,28.77
2017-12-19T20:01:28.149Z,23.27
2017-12-19T20:03:56.304Z,30.23
2017-12-19T20:06:24.506Z,25.43
2017-12-19T20:08:52.566Z,21.50
2017-12-19T20:11:20.705Z,35.00
2017-12-19T20:13:49.545Z,29.90
2017-12-19T20:16:17.857Z,27.33
2017-12-19T20:18:46.101Z,27.10
2017-12-19T20:21:14.470Z,31.67
2017-12-19T20:23:44.976Z,30.63
2017-12-19T20:26:12.960Z,29.47
2017-12-19T20:28:40.750Z,29.27
2017-12-19T20:31:08.723Z,24.90
2017-12-19T20:33:36.538Z,25.83
2017-12-19T20:36:04.381Z,28.50
2017-12-19T20:38:32.722Z,27.03
2017-12-19T20:41:00.523Z,27.67
2017-12-19T20:43:28.401Z,28.47
2017-12-19T20:45:56.380Z,35.03
2017-12-19T20:48:24.382Z,27.57
2017-12-19T20:50:52.259Z,26.93
2017-12-19T20:53:20.195Z,24.37
2017-12-19T20:55:48.879Z,25.47
2017-12-19T20:58:16.669Z,27.50
2017-12-19T21:00:44.406Z,21.87
2017-12-19T21:03:12.265Z,19.67
2017-12-19T21:05:40.139Z,24.07
2017-12-19T21:08:08.070Z,17.47
2017-12-19T21:10:35.913Z,19.27
2017-12-19T21:13:03.748Z,25.60
2017-12-19T21:15:31.485Z,20.73
2017-12-19T21:17:59.203Z,21.30
2017-12-19T21:20:27.019Z,22.93
2017-12-19T21:22:54.818Z,18.10
2017-12-19T21:25:22.625Z,20.80
2017-12-19T21:27:51.193Z,19.60
2017-12-19T21:30:19.778Z,28.07
2017-12-19T21:32:47.592Z,20.03
2017-12-19T21:35:15.414Z,19.27
2017-12-19T21:37:43.230Z,21.80
2017-12-19T21:40:14.271Z,24.30
2017-12-19T21:42:43.027Z,21.30
2017-12-19T21:45:10.935Z,20.47
2017-12-19T21:47:39.460Z,24.47
2017-12-19T21:50:07.401Z,21.07
2017-12-19T21:52:35.245Z,20.20
2017-12-19T21:55:02.913Z,20.87
2017-12-19T21:57:30.740Z,24.23
2017-12-19T21:59:58.557Z,19.67
2017-12-19T22:02:26.323Z,21.07
2017-12-19T22:04:54.187Z,21.50
2017-12-19T22:07:22.000Z,18.50
2017-12-19T22:09:49.801Z,21.93
2017-12-19T22:12:17.622Z,23.57
2017-12-19T22:14:46.202Z,20.83
2017-12-19T22:17:13.974Z,22.47
2017-12-19T22:19:41.761Z,22.00
2017-12-19T22:22:09.600Z,21.53
2017-12-19T22:24:37.483Z,20.33
2017-12-19T22:27:05.300Z,18.53
2017-12-19T22:29:33.166Z,21.40
2017-12-19T22:32:01.008Z,20.20
2017-12-19T22:34:28.940Z,21.97
2017-12-19T22:36:56.802Z,17.50
2017-12-19T22:39:24.837Z,22.70
2017-12-19T22:41:53.357Z,18.07
2017-12-19T22:44:21.380Z,20.27
2017-12-19T22:46:49.137Z,21.13
2017-12-19T22:49:17.778Z,21.83
2017-12-19T22:51:45.598Z,21.53
2017-12-19T22:54:13.517Z,19.60
2017-12-19T22:56:41.338Z,19.10
2017-12-19T22:59:09.979Z,18.87
2017-12-19T23:01:37.730Z,21.73
2017-12-19T23:04:05.525Z,19.33
2017-12-19T23:06:33.387Z,21.93
2017-12-19T23:09:01.521Z,19.23
2017-12-19T23:11:29.791Z,20.07
2017-12-19T23:13:57.720Z,17.87
2017-12-19T23:16:25.804Z,23.43
2017-12-19T23:18:53.983Z,21.47
2017-12-19T23:21:21.965Z,21.97
2017-12-19T23:23:50.540Z,23.17
2017-12-19T23:26:18.341Z,24.20
2017-12-19T23:28:46.241Z,23.97
2017-12-19T23:31:14.099Z,24.30
2017-12-19T23:33:44.420Z,19.17
2017-12-19T23:36:12.301Z,16.07
2017-12-19T23:38:40.087Z,20.03
2017-12-19T23:41:08.279Z,17.10
2017-12-19T23:43:36.121Z,21.83
2017-12-19T23:46:03.946Z,16.80
2017-12-19T23:48:31.840Z,21.23
2017-12-19T23:50:59.761Z,18.03
2017-12-19T23:53:27.622Z,16.27
2017-12-19T23:55:55.399Z,17.77
2017-12-19T23:58:23.320Z,19.67
